Time;durP1;ratioP1;P1;durP2;ratioP2;P2;SDS_P1;SDS_P2;PMS_P1;PMS_P2;Temp;Humidity;BMP_temperature;BMP_pressure;BME280_temperature;BME280_humidity;BME280_pressure;Samples;Min_cycle;Max_cycle;Signal;HPM_P1;HPM_P2
2022/01/21 00:00:27;;;;;;;17.85;2.72;;;3.10;96.70;;;;;;4977199;28;20448;-71
2022/01/21 00:02:53;;;;;;;13.02;2.83;;;3.00;96.70;;;;;;4993830;28;20038;-70
2022/01/21 00:05:21;;;;;;;11.15;1.95;;;3.10;96.80;;;;;;4993200;28;20364;-71
2022/01/21 00:07:47;;;;;;;18.65;2.42;;;3.10;96.70;;;;;;4993741;28;20053;-71
2022/01/21 00:10:13;;;;;;;12.93;2.00;;;3.00;96.70;;;;;;4993286;28;20081;-70
2022/01/21 00:12:39;;;;;;;15.50;2.40;;;3.10;96.80;;;;;;4990263;28;20030;-71
2022/01/21 00:15:08;;;;;;;22.67;2.53;;;3.00;96.70;;;;;;4993532;28;20096;-71
2022/01/21 00:17:34;;;;;;;14.00;1.63;;;3.00;97.10;;;;;;4993262;28;20041;-71
2022/01/21 00:30:58;;;;;;;13.95;2.40;;;3.00;97.00;;;;;;5012972;28;20121;-70
2022/01/21 00:33:23;;;;;;;15.73;2.50;;;2.90;97.00;;;;;;5012878;28;20093;-71
2022/01/21 00:35:49;;;;;;;16.75;2.63;;;3.00;97.10;;;;;;5011970;28;20042;-71
2022/01/21 00:38:15;;;;;;;16.48;2.72;;;3.00;97.10;;;;;;5012422;28;20042;-72
2022/01/21 00:40:41;;;;;;;9.75;2.15;;;3.00;97.10;;;;;;5013000;28;20043;-70
2022/01/21 00:45:35;;;;;;;16.05;2.20;;;2.90;97.30;;;;;;5012791;28;20022;-70
2022/01/21 00:48:00;;;;;;;16.20;2.28;;;2.90;97.40;;;;;;4994874;28;20463;-71
2022/01/21 00:50:26;;;;;;;17.25;2.53;;;2.80;97.50;;;;;;4995107;28;20054;-71
2022/01/21 00:52:52;;;;;;;24.77;2.67;;;2.80;97.60;;;;;;5012440;28;20034;-71
2022/01/21 00:55:17;;;;;;;16.77;2.20;;;2.80;97.50;;;;;;5012419;28;20030;-70
2022/01/21 00:57:43;;;;;;;14.57;2.53;;;2.80;97.60;;;;;;5012241;28;20022;-71
2022/01/21 01:00:11;;;;;;;11.50;2.53;;;2.70;97.60;;;;;;4995159;28;20010;-71
2022/01/21 01:02:36;;;;;;;11.38;2.42;;;2.70;97.60;;;;;;5012082;28;20045;-71
2022/01/21 01:05:03;;;;;;;13.68;2.63;;;2.80;97.80;;;;;;5012411;28;20034;-71
2022/01/21 01:07:28;;;;;;;17.77;2.85;;;2.60;97.80;;;;;;5012120;28;20112;-71
2022/01/21 01:09:56;;;;;;;12.35;2.70;;;2.70;98.10;;;;;;5011956;28;20451;-71
2022/01/21 01:20:37;;;;;;;16.58;3.03;;;2.80;97.80;;;;;;5011934;28;20191;-70
2022/01/21 01:23:09;;;;;;;18.45;2.80;;;2.80;97.70;;;;;;5011757;28;20491;-72
2022/01/21 01:28:19;;;;;;;11.65;2.33;;;2.80;97.70;;;;;;5011393;28;20033;-70
2022/01/21 01:30:44;;;;;;;26.13;2.45;;;2.80;97.80;;;;;;5011836;28;20026;-70
2022/01/21 01:33:13;;;;;;;15.48;2.30;;;2.50;98.20;;;;;;4994934;28;20022;-71
2022/01/21 01:35:39;;;;;;;13.48;2.20;;;2.60;98.20;;;;;;5011300;28;20058;-70
2022/01/21 01:49:24;;;;;;;22.33;2.85;;;2.70;98.10;;;;;;5011848;28;20037;-71
2022/01/21 01:51:22;;;;;;;19.15;2.28;;;2.70;98.40;;;;;;5011969;28;20053;-70
2022/01/21 01:53:55;;;;;;;19.75;1.85;;;2.70;98.40;;;;;;5011479;28;20112;-70
2022/01/21 01:56:27;;;;;;;9.88;2.30;;;2.70;98.30;;;;;;5011475;28;20026;-70
2022/01/21 01:58:52;;;;;;;10.23;2.30;;;2.70;98.40;;;;;;4993434;28;20045;-69
2022/01/21 02:01:21;;;;;;;18.25;2.38;;;2.70;98.30;;;;;;4993883;28;20094;-72
2022/01/21 02:03:47;;;;;;;17.73;2.35;;;2.70;98.40;;;;;;5011141;28;20452;-71
2022/01/21 02:06:12;;;;;;;17.67;2.50;;;2.70;98.40;;;;;;4994513;28;20175;-71
2022/01/21 02:08:38;;;;;;;28.38;3.40;;;2.60;98.60;;;;;;5011571;28;20036;-71
2022/01/21 02:11:04;;;;;;;18.95;3.25;;;2.50;98.80;;;;;;4993402;28;20034;-70
2022/01/21 02:13:34;;;;;;;16.08;1.88;;;2.40;99.00;;;;;;5009783;28;20045;-71
2022/01/21 02:21:44;;;;;;;15.63;2.53;;;2.50;99.10;;;;;;5010940;28;20087;-71
2022/01/21 02:24:20;;;;;;;22.75;2.78;;;2.60;99.00;;;;;;5010852;28;20022;-71
2022/01/21 02:26:48;;;;;;;14.70;1.95;;;2.60;98.90;;;;;;5011016;28;20046;-70
2022/01/21 02:29:25;;;;;;;16.88;2.42;;;2.60;98.90;;;;;;4993522;28;20135;-71
2022/01/21 02:31:51;;;;;;;15.57;1.92;;;2.60;98.90;;;;;;5010716;28;20030;-72
2022/01/21 02:34:17;;;;;;;14.68;1.88;;;2.50;99.00;;;;;;5010785;28;20686;-71
2022/01/21 02:36:42;;;;;;;23.17;2.55;;;2.50;99.20;;;;;;5010450;28;20511;-71
2022/01/21 02:39:08;;;;;;;15.35;2.50;;;2.40;99.30;;;;;;4993506;28;20376;-69
2022/01/21 02:41:34;;;;;;;12.23;1.95;;;2.50;99.20;;;;;;5010636;28;20080;-70
2022/01/21 02:44:00;;;;;;;22.02;2.67;;;2.60;99.20;;;;;;5010698;28;20099;-71
2022/01/21 02:46:26;;;;;;;15.55;2.20;;;2.60;99.20;;;;;;5010064;28;20069;-71
2022/01/21 02:48:52;;;;;;;17.13;2.65;;;2.60;99.20;;;;;;5010546;28;20034;-71
2022/01/21 02:51:18;;;;;;;20.90;2.30;;;2.60;99.20;;;;;;4993533;28;20033;-72
2022/01/21 02:56:11;;;;;;;11.90;2.45;;;2.60;99.40;;;;;;5009898;28;20046;-72
2022/01/21 02:58:38;;;;;;;11.50;2.15;;;2.60;99.20;;;;;;5010337;28;20527;-72
2022/01/21 03:01:04;;;;;;;14.35;2.70;;;2.50;99.30;;;;;;4992813;28;20034;-71
2022/01/21 03:03:30;;;;;;;16.25;2.60;;;2.40;99.60;;;;;;5010871;28;20458;-70
2022/01/21 03:05:55;;;;;;;11.07;1.77;;;2.50;99.60;;;;;;5010444;28;20034;-70
2022/01/21 03:08:22;;;;;;;15.80;1.88;;;2.50;99.60;;;;;;5009941;28;20061;-71
2022/01/21 03:10:47;;;;;;;15.45;2.08;;;2.40;99.70;;;;;;5009382;28;20132;-71
2022/01/21 03:13:14;;;;;;;18.05;2.35;;;2.50;99.60;;;;;;4992455;28;20121;-71
2022/01/21 03:15:40;;;;;;;15.40;2.45;;;2.40;99.60;;;;;;5010452;28;20037;-70
2022/01/21 03:18:05;;;;;;;18.13;2.25;;;2.40;99.70;;;;;;5010781;28;20025;-71
2022/01/21 03:20:31;;;;;;;21.17;2.45;;;2.40;99.90;;;;;;5009942;28;20288;-70
2022/01/21 03:22:59;;;;;;;16.15;2.55;;;2.50;99.80;;;;;;5010113;28;20026;-70
2022/01/21 03:25:24;;;;;;;;;;;2.50;99.90;;;;;;5010657;28;20034;-70
2022/01/21 03:27:50;;;;;;;21.92;2.05;;;2.50;99.80;;;;;;5010122;28;19913;-71
2022/01/21 03:30:15;;;;;;;16.63;2.25;;;2.70;99.90;;;;;;5010566;28;20022;-72
2022/01/21 03:32:41;;;;;;;9.90;1.70;;;2.50;99.70;;;;;;5009555;28;20040;-71
2022/01/21 03:35:07;;;;;;;18.55;2.10;;;2.60;99.70;;;;;;5010250;28;20030;-71
2022/01/21 03:37:33;;;;;;;22.70;2.25;;;2.50;99.90;;;;;;4992689;28;20112;-71
2022/01/21 03:39:58;;;;;;;9.27;1.60;;;2.60;99.80;;;;;;4992705;28;20037;-71
2022/01/21 03:42:24;;;;;;;11.40;2.42;;;2.60;99.80;;;;;;5010503;28;20087;-72
2022/01/21 03:44:50;;;;;;;14.55;1.60;;;2.50;99.80;;;;;;5009398;28;20045;-71
2022/01/21 03:47:15;;;;;;;14.20;2.42;;;2.50;99.80;;;;;;4992751;28;20498;-70
2022/01/21 03:49:51;;;;;;;16.67;2.10;;;2.50;99.90;;;;;;4992926;28;20026;-71
2022/01/21 03:52:16;;;;;;;14.18;2.28;;;2.60;99.90;;;;;;5013194;28;20030;-71
2022/01/21 03:54:42;;;;;;;13.90;2.50;;;2.70;99.90;;;;;;5013259;28;20045;-72
2022/01/21 03:57:07;;;;;;;16.45;1.67;;;2.70;99.90;;;;;;5014030;28;20034;-72
2022/01/21 03:59:33;;;;;;;15.52;1.60;;;2.70;99.90;;;;;;5013537;28;20073;-72
2022/01/21 04:02:00;;;;;;;15.75;1.73;;;2.80;99.90;;;;;;5013171;28;20036;-71
2022/01/21 04:04:25;;;;;;;12.27;2.10;;;2.80;99.90;;;;;;5013475;28;20109;-71
2022/01/21 04:06:51;;;;;;;14.32;1.63;;;2.80;99.90;;;;;;5012583;28;20152;-72
2022/01/21 04:09:17;;;;;;;10.75;2.42;;;2.80;99.80;;;;;;4996448;28;20115;-72
2022/01/21 04:11:42;;;;;;;19.48;2.17;;;2.90;99.90;;;;;;4996163;28;20034;-70
2022/01/21 04:14:08;;;;;;;22.75;2.40;;;2.90;99.80;;;;;;5013415;28;20169;-71
2022/01/21 04:16:34;;;;;;;8.90;1.75;;;2.80;99.90;;;;;;5013174;28;20046;-72
2022/01/21 04:18:59;;;;;;;15.25;1.95;;;2.90;99.90;;;;;;5012337;28;20117;-72
2022/01/21 04:21:25;;;;;;;12.75;2.15;;;3.00;99.80;;;;;;5013526;28;20034;-72
2022/01/21 04:23:51;;;;;;;15.27;2.20;;;2.90;99.80;;;;;;5013007;28;20033;-71
2022/01/21 04:26:16;;;;;;;11.35;2.35;;;3.00;99.80;;;;;;4995131;28;20046;-72
2022/01/21 04:28:42;;;;;;;21.67;2.60;;;2.90;99.90;;;;;;5012846;28;20034;-72
2022/01/21 04:31:07;;;;;;;10.10;1.88;;;2.90;99.90;;;;;;4995446;28;20057;-71
2022/01/21 04:33:33;;;;;;;8.75;1.85;;;3.00;99.90;;;;;;5012588;28;20058;-70
2022/01/21 04:35:58;;;;;;;18.48;2.50;;;2.90;99.90;;;;;;5012666;28;20088;-71
2022/01/21 04:38:25;;;;;;;15.00;2.70;;;2.90;99.90;;;;;;5012703;28;20589;-71
2022/01/21 04:41:00;;;;;;;17.38;2.15;;;2.90;99.90;;;;;;5012927;28;20030;-72
2022/01/21 04:48:54;;;;;;;14.85;2.20;;;2.90;99.90;;;;;;5011735;28;20119;-70
2022/01/21 04:51:26;;;;;;;10.15;2.05;;;2.90;99.90;;;;;;5012935;28;20093;-71
2022/01/21 04:53:51;;;;;;;13.18;2.28;;;2.90;99.90;;;;;;5012428;28;20030;-71
2022/01/21 04:56:17;;;;;;;9.32;1.92;;;2.90;99.90;;;;;;5012458;28;20376;-71
2022/01/21 04:58:43;;;;;;;11.60;1.70;;;2.90;99.90;;;;;;5011850;28;20096;-71
2022/01/21 05:01:09;;;;;;;10.90;1.83;;;2.90;99.90;;;;;;5012231;28;20033;-71
2022/01/21 05:03:37;;;;;;;11.10;1.83;;;2.90;99.90;;;;;;5011377;28;20030;-72
2022/01/21 05:06:03;;;;;;;;;;;2.90;99.80;;;;;;5012676;28;20029;-71
2022/01/21 05:08:38;;;;;;;12.27;1.83;;;2.90;99.90;;;;;;5011940;28;19913;-72
2022/01/21 05:11:04;;;;;;;10.30;1.80;;;2.90;99.80;;;;;;5011982;28;20041;-71
2022/01/21 05:13:37;;;;;;;15.05;1.98;;;2.80;99.90;;;;;;5012132;28;20368;-72
2022/01/21 05:16:07;;;;;;;11.18;1.77;;;2.80;99.90;;;;;;5011487;28;20474;-71
2022/01/21 05:18:33;;;;;;;10.45;1.83;;;2.90;99.90;;;;;;4998625;28;20474;-71
2022/01/21 05:20:59;;;;;;;10.52;1.40;;;2.80;99.80;;;;;;4992793;28;20027;-71
2022/01/21 05:23:25;;;;;;;7.35;1.80;;;2.80;99.90;;;;;;4975081;28;20033;-70
2022/01/21 05:25:51;;;;;;;14.30;1.92;;;2.80;99.90;;;;;;4980380;28;20041;-72
2022/01/21 05:28:17;;;;;;;11.65;1.80;;;2.80;99.90;;;;;;4982022;28;20113;-72
2022/01/21 05:30:42;;;;;;;13.43;2.20;;;2.80;99.90;;;;;;4992039;28;20040;-71
2022/01/21 05:33:08;;;;;;;18.25;1.80;;;2.90;99.90;;;;;;4992717;28;20062;-71
2022/01/21 05:35:33;;;;;;;10.98;1.30;;;2.80;99.90;;;;;;4991554;28;20114;-72
2022/01/21 05:37:59;;;;;;;14.48;2.35;;;2.90;99.90;;;;;;4991921;28;20038;-71
2022/01/21 05:40:25;;;;;;;12.13;2.05;;;2.90;99.90;;;;;;4992066;28;20058;-71
2022/01/21 05:42:51;;;;;;;16.80;1.75;;;3.00;99.90;;;;;;4991915;28;20122;-71
2022/01/21 05:48:01;;;;;;;21.88;1.80;;;3.10;99.90;;;;;;4991305;28;20376;-72
2022/01/21 05:50:26;;;;;;;9.93;1.50;;;3.10;99.90;;;;;;4990828;28;20030;-71
2022/01/21 05:52:52;;;;;;;7.45;1.77;;;3.10;99.90;;;;;;4991722;28;20038;-71
2022/01/21 05:55:18;;;;;;;9.93;1.60;;;3.10;99.90;;;;;;4991876;28;20066;-71
2022/01/21 05:57:44;;;;;;;17.13;1.58;;;3.20;99.90;;;;;;4991586;28;20026;-70
2022/01/21 06:00:11;;;;;;;9.45;1.48;;;3.20;99.90;;;;;;4974148;28;20019;-71
2022/01/21 06:02:37;;;;;;;9.43;1.85;;;3.20;99.90;;;;;;4991509;28;20045;-71
2022/01/21 06:05:04;;;;;;;12.82;2.45;;;3.30;99.90;;;;;;4991105;28;20517;-71
2022/01/21 06:07:30;;;;;;;7.60;1.90;;;3.30;99.90;;;;;;4991551;28;20049;-70
2022/01/21 06:09:56;;;;;;;8.73;2.05;;;3.40;99.90;;;;;;4991175;28;20113;-71
2022/01/21 06:12:21;;;;;;;6.38;1.58;;;3.40;99.90;;;;;;4991787;28;20026;-72
2022/01/21 06:14:47;;;;;;;10.07;1.50;;;3.50;99.90;;;;;;4990574;28;20027;-70
2022/01/21 06:17:13;;;;;;;13.13;1.92;;;3.50;99.90;;;;;;4989794;28;20038;-71
2022/01/21 06:19:39;;;;;;;9.98;1.50;;;3.50;99.90;;;;;;4990961;28;20591;-70
2022/01/21 06:22:06;;;;;;;12.13;2.05;;;3.50;99.90;;;;;;4973981;28;20026;-70
2022/01/21 06:24:32;;;;;;;13.90;1.50;;;3.40;99.90;;;;;;4972849;28;20325;-71
2022/01/21 06:27:01;;;;;;;12.18;2.15;;;3.60;99.90;;;;;;5010664;28;20100;-72
2022/01/21 06:29:27;;;;;;;7.53;1.63;;;3.60;99.90;;;;;;5008121;28;20470;-71
2022/01/21 06:31:53;;;;;;;14.60;1.83;;;3.60;99.90;;;;;;5010951;28;20113;-71
2022/01/21 06:34:18;;;;;;;18.48;1.85;;;3.70;99.90;;;;;;5009942;28;20040;-71
2022/01/21 06:36:44;;;;;;;10.65;1.50;;;3.70;99.90;;;;;;5009786;28;20411;-71
2022/01/21 06:39:09;;;;;;;13.75;1.90;;;3.60;99.90;;;;;;5010900;28;20022;-71
2022/01/21 06:41:35;;;;;;;6.43;1.42;;;3.70;99.90;;;;;;5010263;28;20126;-71
2022/01/21 06:44:01;;;;;;;10.20;1.70;;;3.80;99.90;;;;;;5009647;28;20030;-72
2022/01/21 06:46:27;;;;;;;14.88;1.35;;;3.70;99.90;;;;;;5000625;28;20030;-72
2022/01/21 06:48:53;;;;;;;14.23;2.90;;;3.70;99.90;;;;;;4983965;28;20049;-72
2022/01/21 06:51:18;;;;;;;13.82;1.60;;;3.70;99.90;;;;;;5000248;28;20452;-70
2022/01/21 06:53:44;;;;;;;17.00;1.95;;;3.80;99.90;;;;;;4991385;28;20221;-71
2022/01/21 06:56:09;;;;;;;8.68;1.73;;;3.80;99.90;;;;;;4991098;28;20457;-71
2022/01/21 06:58:35;;;;;;;6.60;1.75;;;3.90;99.90;;;;;;4980472;28;20050;-72
2022/01/21 07:01:01;;;;;;;9.23;1.80;;;3.80;99.90;;;;;;5010077;28;20486;-72
2022/01/21 07:03:26;;;;;;;13.35;2.22;;;4.00;99.90;;;;;;5010810;28;20034;-71
2022/01/21 07:05:52;;;;;;;9.02;1.77;;;4.00;99.90;;;;;;5009955;28;20061;-71
2022/01/21 07:08:18;;;;;;;10.13;1.92;;;3.90;99.90;;;;;;4993721;28;20042;-71
2022/01/21 07:10:45;;;;;;;17.52;2.65;;;3.90;99.90;;;;;;4993822;28;20034;-74
2022/01/21 07:13:11;;;;;;;17.00;1.77;;;3.90;99.90;;;;;;5010253;28;20034;-74
2022/01/21 07:15:37;;;;;;;22.45;3.67;;;4.00;99.90;;;;;;4992333;28;20034;-70
2022/01/21 07:18:03;;;;;;;12.70;2.20;;;4.10;99.90;;;;;;5009111;28;20049;-73
2022/01/21 07:20:28;;;;;;;11.48;1.95;;;4.10;99.90;;;;;;5009984;28;20042;-73
2022/01/21 07:22:54;;;;;;;11.70;1.90;;;4.00;99.90;;;;;;4992910;28;20033;-74
2022/01/21 07:25:20;;;;;;;17.77;2.10;;;4.00;99.90;;;;;;5004535;28;20116;-74
2022/01/21 07:27:46;;;;;;;22.95;2.33;;;4.00;99.90;;;;;;5012819;28;20061;-73
2022/01/21 07:30:13;;;;;;;16.08;2.13;;;4.10;99.90;;;;;;4996458;28;20330;-73
2022/01/21 07:32:43;;;;;;;11.30;2.17;;;4.20;99.90;;;;;;4996330;28;20034;-74
2022/01/21 07:35:09;;;;;;;21.83;1.95;;;4.10;99.90;;;;;;5013771;28;20057;-70
2022/01/21 07:37:36;;;;;;;20.60;2.33;;;4.20;99.90;;;;;;5008828;28;20038;-74
2022/01/21 07:40:03;;;;;;;14.03;2.63;;;4.20;99.90;;;;;;5006268;28;20036;-73
2022/01/21 07:42:29;;;;;;;18.25;2.85;;;4.10;99.90;;;;;;5013521;28;20079;-73
2022/01/21 07:44:55;;;;;;;13.13;2.53;;;4.20;99.90;;;;;;5013119;28;20038;-73
2022/01/21 07:47:21;;;;;;;19.83;2.53;;;4.10;99.90;;;;;;5012980;28;20057;-74
2022/01/21 07:49:46;;;;;;;10.20;2.47;;;4.10;99.90;;;;;;5013117;28;20041;-71
2022/01/21 07:52:13;;;;;;;14.77;2.38;;;4.10;99.90;;;;;;5012994;28;20346;-74
2022/01/21 07:54:38;;;;;;;10.07;2.15;;;4.20;99.90;;;;;;5013276;28;20030;-73
2022/01/21 07:57:04;;;;;;;13.63;2.55;;;4.10;99.90;;;;;;5014345;28;20026;-74
2022/01/21 07:59:29;;;;;;;14.65;2.60;;;4.10;99.90;;;;;;4995694;28;20037;-72
2022/01/21 08:01:57;;;;;;;11.85;1.73;;;4.00;99.90;;;;;;4995216;28;20056;-74
2022/01/21 08:04:23;;;;;;;14.30;2.17;;;4.10;99.90;;;;;;5013175;28;20483;-72
2022/01/21 08:06:48;;;;;;;9.38;1.73;;;4.10;99.90;;;;;;5012957;28;20286;-73
2022/01/21 08:09:14;;;;;;;13.73;2.20;;;4.00;99.90;;;;;;5013767;28;20018;-73
2022/01/21 08:11:40;;;;;;;9.07;2.63;;;4.00;99.90;;;;;;5013251;28;20495;-74
2022/01/21 08:14:06;;;;;;;13.82;2.50;;;4.00;99.90;;;;;;5013480;28;20034;-75
2022/01/21 08:16:34;;;;;;;19.38;3.38;;;4.00;99.90;;;;;;5012344;28;20682;-74
2022/01/21 08:19:00;;;;;;;18.65;2.45;;;4.00;99.90;;;;;;5012863;28;20056;-75
2022/01/21 08:21:26;;;;;;;12.23;2.70;;;4.00;99.90;;;;;;5013695;28;20444;-73
2022/01/21 08:23:53;;;;;;;15.02;2.67;;;4.00;99.90;;;;;;5012274;28;20030;-74
2022/01/21 08:26:22;;;;;;;15.80;2.88;;;4.10;99.90;;;;;;5012472;28;20042;-73
2022/01/21 08:28:48;;;;;;;10.02;2.60;;;4.00;99.90;;;;;;5011817;28;20037;-75
2022/01/21 08:31:14;;;;;;;16.65;2.53;;;4.20;99.90;;;;;;5012226;28;20428;-75
2022/01/21 08:33:40;;;;;;;15.65;2.95;;;4.10;99.90;;;;;;5012080;28;20029;-76
2022/01/21 08:36:07;;;;;;;15.65;2.78;;;4.30;99.90;;;;;;5012956;28;20235;-75
2022/01/21 08:38:34;;;;;;;13.32;2.38;;;4.40;99.90;;;;;;5012589;28;20058;-73
2022/01/21 08:41:00;;;;;;;15.95;2.50;;;4.50;99.90;;;;;;5012486;28;20072;-73
2022/01/21 08:43:25;;;;;;;13.70;2.40;;;4.50;99.90;;;;;;5012336;28;20045;-74
2022/01/21 08:45:51;;;;;;;9.13;1.95;;;4.50;99.90;;;;;;5011909;28;20028;-75
2022/01/21 08:48:24;;;;;;;12.25;2.13;;;4.60;99.90;;;;;;5012794;28;20037;-74
2022/01/21 08:50:50;;;;;;;10.90;2.15;;;4.60;99.90;;;;;;5012261;28;20103;-74
2022/01/21 08:56:00;;;;;;;11.40;2.55;;;4.50;99.90;;;;;;5012226;28;20352;-74
2022/01/21 08:58:26;;;;;;;14.57;2.55;;;4.60;99.90;;;;;;5012027;28;20034;-75
2022/01/21 09:00:52;;;;;;;11.65;1.80;;;4.50;99.90;;;;;;4995058;28;20026;-75
2022/01/21 09:03:18;;;;;;;13.80;2.20;;;4.70;99.90;;;;;;5011986;28;20092;-74
2022/01/21 09:05:48;;;;;;;12.05;2.53;;;4.70;99.90;;;;;;4986444;28;20041;-73
2022/01/21 09:08:15;;;;;;;10.82;2.67;;;4.60;99.90;;;;;;5012377;28;20091;-74
2022/01/21 09:10:42;;;;;;;9.88;2.47;;;4.60;99.90;;;;;;5012635;28;20040;-75
2022/01/21 09:13:08;;;;;;;12.52;2.33;;;4.70;99.90;;;;;;5012032;28;20100;-70
2022/01/21 09:15:35;;;;;;;9.45;3.45;;;4.70;99.90;;;;;;5011368;28;20034;-70
2022/01/21 09:18:04;;;;;;;14.43;4.35;;;4.60;99.90;;;;;;4994702;28;20026;-75
2022/01/21 09:20:35;;;;;;;13.00;4.25;;;4.60;99.90;;;;;;5012350;28;20026;-74
2022/01/21 09:23:00;;;;;;;14.20;3.65;;;4.80;99.90;;;;;;4994832;28;20444;-74
2022/01/21 09:25:26;;;;;;;16.40;3.67;;;4.70;99.90;;;;;;5011134;28;20286;-73
2022/01/21 09:27:52;;;;;;;9.95;3.25;;;5.00;99.90;;;;;;5011512;28;20026;-73
2022/01/21 09:30:18;;;;;;;10.90;3.40;;;5.00;99.90;;;;;;5011964;28;20451;-74
2022/01/21 09:32:44;;;;;;;14.45;3.40;;;5.00;99.90;;;;;;5011715;28;20034;-74
2022/01/21 09:35:10;;;;;;;10.32;2.72;;;5.10;99.90;;;;;;5011530;28;20048;-72
2022/01/21 09:37:36;;;;;;;13.82;2.88;;;5.00;99.90;;;;;;5010789;28;20111;-74
2022/01/21 09:40:04;;;;;;;16.08;2.45;;;5.10;99.90;;;;;;5010474;28;20459;-73
2022/01/21 09:42:35;;;;;;;14.05;2.72;;;5.10;99.90;;;;;;5011873;28;20092;-73
2022/01/21 09:45:08;;;;;;;10.80;2.42;;;5.10;99.90;;;;;;4994412;28;20049;-72
2022/01/21 09:47:44;;;;;;;7.90;2.30;;;5.20;99.90;;;;;;5002983;28;20096;-74
2022/01/21 09:50:12;;;;;;;14.75;2.28;;;5.30;99.90;;;;;;5011129;28;20054;-75
2022/01/21 09:52:37;;;;;;;11.55;2.03;;;5.50;99.90;;;;;;5011528;28;20374;-74
2022/01/21 09:55:04;;;;;;;10.52;2.42;;;5.30;99.90;;;;;;5011595;28;20029;-72
2022/01/21 09:57:31;;;;;;;12.23;2.63;;;5.50;99.90;;;;;;5011399;28;20022;-72
2022/01/21 09:59:58;;;;;;;12.27;3.00;;;5.50;99.90;;;;;;5010777;28;20105;-73
2022/01/21 10:02:28;;;;;;;11.65;2.72;;;5.30;99.90;;;;;;5011214;28;20529;-73
2022/01/21 10:04:57;;;;;;;7.53;1.80;;;5.50;99.90;;;;;;5010746;28;20034;-73
2022/01/21 10:07:24;;;;;;;6.97;2.05;;;5.50;99.90;;;;;;5010739;28;20543;-73
2022/01/21 10:09:51;;;;;;;13.85;2.50;;;5.40;99.90;;;;;;5011347;28;20022;-73
2022/01/21 10:12:17;;;;;;;12.35;3.08;;;5.50;99.90;;;;;;5011909;28;20014;-73
2022/01/21 10:14:44;;;;;;;9.02;2.30;;;5.60;99.90;;;;;;5011167;28;20037;-73
2022/01/21 10:17:10;;;;;;;13.13;2.83;;;5.60;99.90;;;;;;5010265;28;20368;-69
2022/01/21 10:19:39;;;;;;;10.52;2.35;;;5.30;99.90;;;;;;5010604;28;20106;-72
2022/01/21 10:22:10;;;;;;;12.60;2.90;;;5.40;99.90;;;;;;5011214;28;20100;-74
2022/01/21 10:24:49;;;;;;;10.27;2.53;;;5.30;99.90;;;;;;5011268;28;20041;-72
2022/01/21 10:27:26;;;;;;;9.50;2.30;;;5.30;99.90;;;;;;5011443;28;20420;-71
2022/01/21 10:29:52;;;;;;;8.85;2.55;;;5.60;99.90;;;;;;5009763;28;20513;-72
2022/01/21 10:32:31;;;;;;;10.65;2.75;;;5.60;99.90;;;;;;5010833;28;20136;-72
2022/01/21 10:34:57;;;;;;;11.57;2.40;;;5.50;99.90;;;;;;5010193;28;20041;-72
2022/01/21 10:37:34;;;;;;;15.32;3.60;;;5.70;99.90;;;;;;5010926;28;20045;-74
2022/01/21 10:40:04;;;;;;;15.20;2.58;;;5.80;99.90;;;;;;4993838;28;20348;-74
2022/01/21 10:42:31;;;;;;;12.02;3.00;;;5.90;99.90;;;;;;5011916;28;20029;-74
2022/01/21 10:44:58;;;;;;;11.32;3.05;;;5.90;99.70;;;;;;5010597;28;20041;-73
2022/01/21 10:47:31;;;;;;;11.95;3.95;;;5.90;99.90;;;;;;5004674;28;20368;-72
2022/01/21 10:50:01;;;;;;;9.18;2.63;;;6.20;99.90;;;;;;4994368;28;20030;-75
2022/01/21 10:52:34;;;;;;;12.48;3.13;;;6.30;99.60;;;;;;4993492;28;20022;-74
2022/01/21 10:55:00;;;;;;;11.05;2.95;;;6.40;99.40;;;;;;5010620;28;20113;-73
2022/01/21 10:57:29;;;;;;;11.32;2.65;;;6.50;99.10;;;;;;5010939;28;20030;-72
2022/01/21 11:00:09;;;;;;;12.80;3.35;;;6.50;99.40;;;;;;5010343;28;20030;-70
2022/01/21 11:02:47;;;;;;;12.02;2.78;;;6.40;99.20;;;;;;5011365;28;20034;-72
2022/01/21 11:05:27;;;;;;;;;;;6.30;99.10;;;;;;5014452;28;20169;-70
2022/01/21 11:07:58;;;;;;;18.63;2.55;;;6.50;99.20;;;;;;5014194;28;19990;-70
2022/01/21 11:10:44;;;;;;;10.93;2.83;;;6.50;99.30;;;;;;5013668;28;20065;-71
2022/01/21 11:13:13;;;;;;;10.10;2.70;;;6.50;99.10;;;;;;5012809;28;20076;-76
2022/01/21 11:15:39;;;;;;;15.43;2.42;;;6.30;99.40;;;;;;4994900;28;20088;-77
2022/01/21 11:18:07;;;;;;;7.05;2.05;;;6.40;99.20;;;;;;4995001;28;20476;-74
2022/01/21 11:20:39;;;;;;;8.88;2.40;;;6.40;99.20;;;;;;4995027;28;20101;-74
2022/01/21 11:23:05;;;;;;;14.07;2.30;;;6.30;99.50;;;;;;4994530;28;20031;-74
2022/01/21 11:25:49;;;;;;;12.35;2.90;;;6.10;99.50;;;;;;5012574;28;20498;-74
2022/01/21 11:28:22;;;;;;;13.95;3.13;;;6.40;99.60;;;;;;5013462;28;20034;-76
2022/01/21 11:30:49;;;;;;;14.95;2.85;;;6.50;99.60;;;;;;4996453;28;20041;-75
2022/01/21 11:33:15;;;;;;;8.60;2.90;;;6.40;99.30;;;;;;5014375;28;20428;-75
2022/01/21 11:35:42;;;;;;;20.65;2.70;;;6.30;99.40;;;;;;5014037;28;20025;-70
2022/01/21 11:38:09;;;;;;;12.43;2.72;;;6.40;99.40;;;;;;5012901;28;20026;-73
2022/01/21 11:40:38;;;;;;;12.55;2.45;;;6.30;99.50;;;;;;5012927;28;20086;-73
2022/01/21 11:43:06;;;;;;;5.00;2.10;;;6.20;99.50;;;;;;5013640;28;20452;-73
2022/01/21 11:45:54;;;;;;;7.07;1.92;;;6.50;99.50;;;;;;5014288;28;20117;-73
2022/01/21 11:50:49;;;;;;;16.10;2.40;;;6.20;99.30;;;;;;5013040;28;20037;-72
2022/01/21 11:53:35;;;;;;;15.38;2.65;;;6.30;99.80;;;;;;5012619;28;20153;-71
2022/01/21 11:56:00;;;;;;;10.73;2.05;;;6.30;99.90;;;;;;5013481;28;20476;-70
2022/01/21 11:58:26;;;;;;;12.05;2.67;;;6.40;99.90;;;;;;4995940;28;20246;-70
2022/01/21 12:00:53;;;;;;;16.33;2.20;;;6.50;99.90;;;;;;4994843;28;20354;-70
2022/01/21 12:03:22;;;;;;;11.50;2.95;;;6.40;99.80;;;;;;5013567;28;20029;-75
2022/01/21 12:05:49;;;;;;;11.48;2.40;;;6.40;99.90;;;;;;5010615;28;20049;-76
2022/01/21 12:08:15;;;;;;;6.93;1.92;;;6.60;99.90;;;;;;5013286;28;20096;-74
2022/01/21 12:10:44;;;;;;;12.55;3.45;;;6.60;99.90;;;;;;5013442;28;20026;-74
2022/01/21 12:13:16;;;;;;;12.57;3.13;;;6.60;99.90;;;;;;5012746;28;20084;-74
2022/01/21 12:18:31;;;;;;;13.60;2.05;;;6.70;99.80;;;;;;5013664;28;20117;-74
2022/01/21 12:21:01;;;;;;;11.43;2.17;;;6.60;99.70;;;;;;5013254;28;20034;-74
2022/01/21 12:23:28;;;;;;;7.43;2.17;;;6.70;99.90;;;;;;5012822;28;20441;-74
2022/01/21 12:26:18;;;;;;;21.92;3.25;;;6.60;99.80;;;;;;5012444;28;20440;-74
2022/01/21 12:28:54;;;;;;;10.35;3.15;;;6.70;99.90;;;;;;4999687;28;20038;-75
2022/01/21 12:31:22;;;;;;;13.35;2.53;;;6.60;99.80;;;;;;4993577;28;20034;-75
2022/01/21 12:33:58;;;;;;;12.88;2.63;;;6.80;99.70;;;;;;4976279;28;20025;-75
2022/01/21 12:36:31;;;;;;;5.38;2.00;;;6.90;99.60;;;;;;4993750;28;20025;-71
2022/01/21 12:41:23;;;;;;;12.32;2.08;;;6.90;99.40;;;;;;4997872;28;20515;-75
2022/01/21 12:43:56;;;;;;;16.92;2.92;;;6.80;99.40;;;;;;5012304;28;20038;-75
2022/01/21 12:46:58;;;;;;;10.10;2.20;;;6.80;99.50;;;;;;4995713;28;20088;-74
2022/01/21 12:49:30;;;;;;;13.10;2.42;;;6.60;99.50;;;;;;4951884;28;20045;-74
2022/01/21 12:57:27;;;;;;;15.73;2.60;;;6.70;99.70;;;;;;5012332;28;20368;-69
2022/01/21 13:00:01;;;;;;;10.48;2.03;;;6.70;99.90;;;;;;5012072;28;20061;-76
2022/01/21 13:02:29;;;;;;;6.95;2.42;;;6.80;99.90;;;;;;5012969;28;20034;-76
2022/01/21 13:05:04;;;;;;;9.02;2.03;;;6.80;99.80;;;;;;5012490;28;20054;-78
2022/01/21 13:07:50;;;;;;;7.93;1.90;;;6.70;99.90;;;;;;4993334;28;20042;-77
2022/01/21 13:10:27;;;;;;;9.07;2.75;;;6.90;99.80;;;;;;4992706;28;20105;-76
2022/01/21 13:15:36;;;;;;;9.95;2.05;;;6.90;99.70;;;;;;5013379;28;20125;-76
2022/01/21 13:18:03;;;;;;;11.68;2.53;;;6.80;99.70;;;;;;5012305;28;20359;-76
2022/01/21 13:20:33;;;;;;;14.23;2.33;;;6.80;99.70;;;;;;4994667;28;20088;-75
2022/01/21 13:23:00;;;;;;;12.15;3.13;;;6.80;99.60;;;;;;5011451;28;20038;-77
2022/01/21 13:25:26;;;;;;;9.23;2.45;;;6.50;99.90;;;;;;5012257;28;20038;-77
2022/01/21 13:27:54;;;;;;;12.07;2.35;;;6.60;99.90;;;;;;5012357;28;20029;-75
2022/01/21 13:30:22;;;;;;;18.02;3.38;;;6.70;99.90;;;;;;5012959;28;20044;-76
2022/01/21 13:33:17;;;;;;;25.02;3.42;;;6.50;99.90;;;;;;5012221;28;20379;-77
2022/01/21 13:35:45;;;;;;;14.55;2.72;;;6.40;99.90;;;;;;5010942;28;20440;-75
2022/01/21 13:38:16;;;;;;;13.98;2.92;;;6.50;99.90;;;;;;5010861;28;20041;-73
2022/01/21 13:40:50;;;;;;;14.07;2.60;;;6.70;99.90;;;;;;4994646;28;20125;-75
2022/01/21 13:43:22;;;;;;;17.02;2.60;;;6.60;99.90;;;;;;5011890;28;20030;-74
2022/01/21 13:46:08;;;;;;;10.60;2.50;;;6.70;99.90;;;;;;4975261;28;20079;-76
2022/01/21 13:48:35;;;;;;;19.02;2.88;;;6.80;99.90;;;;;;5012317;28;20026;-78
2022/01/21 13:51:04;;;;;;;12.27;2.55;;;6.80;99.90;;;;;;5012725;28;20057;-76
2022/01/21 13:53:29;;;;;;;9.13;2.50;;;6.80;99.90;;;;;;4980580;28;20042;-78
2022/01/21 13:56:01;;;;;;;11.77;3.45;;;6.80;99.90;;;;;;4999522;28;20538;-75
2022/01/21 13:58:36;;;;;;;14.73;3.25;;;6.80;99.90;;;;;;4993496;28;20100;-74
2022/01/21 14:01:13;;;;;;;24.17;3.20;;;6.90;99.90;;;;;;4994228;28;20398;-76
2022/01/21 14:03:43;;;;;;;16.58;3.20;;;6.70;99.90;;;;;;5011373;28;20018;-75